sensor_id;sensor_type;location;lat;lon;timestamp;temperature;humidity
46231;DHT22;31949;51.404;-0.038;2022-10-16T00:01:29;12.80;99.90
46231;DHT22;31949;51.404;-0.038;2022-10-16T00:03:57;12.80;99.90
46231;DHT22;31949;51.404;-0.038;2022-10-16T00:06:26;12.70;99.90
46231;DHT22;31949;51.404;-0.038;2022-10-16T00:08:54;12.70;99.90
46231;DHT22;31949;51.404;-0.038;2022-10-16T00:11:23;12.70;99.90
46231;DHT22;31949;51.404;-0.038;2022-10-16T00:13:54;12.70;99.90
46231;DHT22;31949;51.404;-0.038;2022-10-16T00:16:21;12.70;99.90
46231;DHT22;31949;51.404;-0.038;2022-10-16T00:18:48;12.70;99.90
46231;DHT22;31949;51.404;-0.038;2022-10-16T00:21:22;12.70;99.90
46231;DHT22;31949;51.404;-0.038;2022-10-16T00:24:09;12.70;99.90
46231;DHT22;31949;51.404;-0.038;2022-10-16T00:26:37;12.70;99.90
46231;DHT22;31949;51.404;-0.038;2022-10-16T00:29:05;12.70;99.90
46231;DHT22;31949;51.404;-0.038;2022-10-16T00:31:33;12.70;99.90
46231;DHT22;31949;51.404;-0.038;2022-10-16T00:34:00;12.60;99.90
46231;DHT22;31949;51.404;-0.038;2022-10-16T00:36:27;12.70;99.90
46231;DHT22;31949;51.404;-0.038;2022-10-16T00:38:56;12.70;99.90
46231;DHT22;31949;51.404;-0.038;2022-10-16T00:41:25;12.70;99.90
46231;DHT22;31949;51.404;-0.038;2022-10-16T00:44:00;12.70;99.90
46231;DHT22;31949;51.404;-0.038;2022-10-16T00:46:28;12.70;99.90
46231;DHT22;31949;51.404;-0.038;2022-10-16T00:49:15;12.70;99.90
46231;DHT22;31949;51.404;-0.038;2022-10-16T00:51:48;12.70;99.90
46231;DHT22;31949;51.404;-0.038;2022-10-16T00:54:20;12.70;99.90
46231;DHT22;31949;51.404;-0.038;2022-10-16T00:56:48;12.80;99.90
46231;DHT22;31949;51.404;-0.038;2022-10-16T00:59:20;12.80;99.90
46231;DHT22;31949;51.404;-0.038;2022-10-16T01:01:47;12.70;99.90
46231;DHT22;31949;51.404;-0.038;2022-10-16T01:04:15;12.70;99.90
46231;DHT22;31949;51.404;-0.038;2022-10-16T01:10:06;12.80;99.90
46231;DHT22;31949;51.404;-0.038;2022-10-16T01:18:02;12.70;99.90
46231;DHT22;31949;51.404;-0.038;2022-10-16T01:20:35;12.70;99.90
46231;DHT22;31949;51.404;-0.038;2022-10-16T01:23:21;12.80;99.90
46231;DHT22;31949;51.404;-0.038;2022-10-16T01:26:12;12.70;99.90
46231;DHT22;31949;51.404;-0.038;2022-10-16T01:28:54;12.70;99.90
46231;DHT22;31949;51.404;-0.038;2022-10-16T01:31:26;12.70;99.90
46231;DHT22;31949;51.404;-0.038;2022-10-16T01:34:05;12.70;99.90
46231;DHT22;31949;51.404;-0.038;2022-10-16T01:36:40;12.60;99.90
46231;DHT22;31949;51.404;-0.038;2022-10-16T01:39:10;12.60;99.90
46231;DHT22;31949;51.404;-0.038;2022-10-16T01:41:44;12.60;99.90
46231;DHT22;31949;51.404;-0.038;2022-10-16T01:44:22;12.60;99.90
46231;DHT22;31949;51.404;-0.038;2022-10-16T01:46:52;12.60;99.90
46231;DHT22;31949;51.404;-0.038;2022-10-16T01:49:21;12.60;99.90
46231;DHT22;31949;51.404;-0.038;2022-10-16T01:51:54;12.60;99.90
46231;DHT22;31949;51.404;-0.038;2022-10-16T01:54:24;12.60;99.90
46231;DHT22;31949;51.404;-0.038;2022-10-16T01:56:54;12.70;99.90
46231;DHT22;31949;51.404;-0.038;2022-10-16T01:59:25;12.70;99.90
46231;DHT22;31949;51.404;-0.038;2022-10-16T02:02:00;12.80;99.90
46231;DHT22;31949;51.404;-0.038;2022-10-16T02:07:23;12.80;99.90
46231;DHT22;31949;51.404;-0.038;2022-10-16T02:09:50;12.80;99.90
46231;DHT22;31949;51.404;-0.038;2022-10-16T02:12:23;13.00;99.90
46231;DHT22;31949;51.404;-0.038;2022-10-16T02:14:53;13.00;99.90
46231;DHT22;31949;51.404;-0.038;2022-10-16T02:17:21;13.00;99.90
46231;DHT22;31949;51.404;-0.038;2022-10-16T02:19:50;13.00;99.90
46231;DHT22;31949;51.404;-0.038;2022-10-16T02:22:28;13.00;99.90
46231;DHT22;31949;51.404;-0.038;2022-10-16T02:25:00;12.90;99.90
46231;DHT22;31949;51.404;-0.038;2022-10-16T02:32:55;12.80;99.90
46231;DHT22;31949;51.404;-0.038;2022-10-16T02:35:23;12.80;99.90
46231;DHT22;31949;51.404;-0.038;2022-10-16T02:37:51;12.80;99.90
46231;DHT22;31949;51.404;-0.038;2022-10-16T02:40:19;12.70;99.90
46231;DHT22;31949;51.404;-0.038;2022-10-16T02:42:53;12.70;99.90
46231;DHT22;31949;51.404;-0.038;2022-10-16T02:45:20;12.70;99.90
46231;DHT22;31949;51.404;-0.038;2022-10-16T02:47:48;12.60;99.90
46231;DHT22;31949;51.404;-0.038;2022-10-16T02:50:16;12.70;99.90
46231;DHT22;31949;51.404;-0.038;2022-10-16T02:52:43;12.60;99.90
46231;DHT22;31949;51.404;-0.038;2022-10-16T02:55:10;12.60;99.90
46231;DHT22;31949;51.404;-0.038;2022-10-16T02:57:37;12.50;99.90
46231;DHT22;31949;51.404;-0.038;2022-10-16T03:00:09;12.50;99.90
46231;DHT22;31949;51.404;-0.038;2022-10-16T03:02:36;12.50;99.90
46231;DHT22;31949;51.404;-0.038;2022-10-16T03:05:03;12.40;99.90
46231;DHT22;31949;51.404;-0.038;2022-10-16T03:07:31;12.40;99.90
46231;DHT22;31949;51.404;-0.038;2022-10-16T03:09:59;12.30;99.90
46231;DHT22;31949;51.404;-0.038;2022-10-16T03:12:29;12.30;99.90
46231;DHT22;31949;51.404;-0.038;2022-10-16T03:14:57;12.30;99.90
46231;DHT22;31949;51.404;-0.038;2022-10-16T03:17:25;12.20;99.90
46231;DHT22;31949;51.404;-0.038;2022-10-16T03:19:52;12.20;99.90
46231;DHT22;31949;51.404;-0.038;2022-10-16T03:22:19;12.20;99.90
46231;DHT22;31949;51.404;-0.038;2022-10-16T03:24:47;12.20;99.90
46231;DHT22;31949;51.404;-0.038;2022-10-16T03:27:14;12.10;99.90
46231;DHT22;31949;51.404;-0.038;2022-10-16T03:29:41;12.10;99.90
46231;DHT22;31949;51.404;-0.038;2022-10-16T03:32:08;12.10;99.90
46231;DHT22;31949;51.404;-0.038;2022-10-16T03:34:35;12.00;99.90
46231;DHT22;31949;51.404;-0.038;2022-10-16T03:37:02;12.00;99.90
46231;DHT22;31949;51.404;-0.038;2022-10-16T03:39:30;12.00;99.90
46231;DHT22;31949;51.404;-0.038;2022-10-16T03:41:57;12.10;99.90
46231;DHT22;31949;51.404;-0.038;2022-10-16T03:44:24;12.10;99.90
46231;DHT22;31949;51.404;-0.038;2022-10-16T03:46:51;12.10;99.90
46231;DHT22;31949;51.404;-0.038;2022-10-16T03:49:18;12.10;99.90
46231;DHT22;31949;51.404;-0.038;2022-10-16T03:51:45;12.00;99.90
46231;DHT22;31949;51.404;-0.038;2022-10-16T03:54:12;12.00;99.90
46231;DHT22;31949;51.404;-0.038;2022-10-16T03:56:40;12.00;99.90
46231;DHT22;31949;51.404;-0.038;2022-10-16T03:59:07;12.10;99.90
46231;DHT22;31949;51.404;-0.038;2022-10-16T04:01:34;12.00;99.90
46231;DHT22;31949;51.404;-0.038;2022-10-16T04:04:01;12.00;99.90
46231;DHT22;31949;51.404;-0.038;2022-10-16T04:06:28;12.00;99.90
46231;DHT22;31949;51.404;-0.038;2022-10-16T04:08:55;12.00;99.90
46231;DHT22;31949;51.404;-0.038;2022-10-16T04:11:23;12.00;99.90
46231;DHT22;31949;51.404;-0.038;2022-10-16T04:13:50;12.00;99.90
46231;DHT22;31949;51.404;-0.038;2022-10-16T04:16:17;12.00;99.90
46231;DHT22;31949;51.404;-0.038;2022-10-16T04:18:44;12.00;99.90
46231;DHT22;31949;51.404;-0.038;2022-10-16T04:21:11;12.00;99.90
46231;DHT22;31949;51.404;-0.038;2022-10-16T04:23:38;12.00;99.90
46231;DHT22;31949;51.404;-0.038;2022-10-16T04:26:05;11.90;99.90
46231;DHT22;31949;51.404;-0.038;2022-10-16T04:28:32;11.90;99.90
46231;DHT22;31949;51.404;-0.038;2022-10-16T04:31:00;11.90;99.90
46231;DHT22;31949;51.404;-0.038;2022-10-16T04:33:30;12.00;99.90
46231;DHT22;31949;51.404;-0.038;2022-10-16T04:36:01;11.90;99.90
46231;DHT22;31949;51.404;-0.038;2022-10-16T04:38:29;11.90;99.90
46231;DHT22;31949;51.404;-0.038;2022-10-16T04:40:56;11.90;99.90
46231;DHT22;31949;51.404;-0.038;2022-10-16T04:43:23;11.90;99.90
46231;DHT22;31949;51.404;-0.038;2022-10-16T04:45:51;11.90;99.90
46231;DHT22;31949;51.404;-0.038;2022-10-16T04:48:18;11.90;99.90
46231;DHT22;31949;51.404;-0.038;2022-10-16T04:50:45;11.90;99.90
46231;DHT22;31949;51.404;-0.038;2022-10-16T04:53:20;11.90;99.90
46231;DHT22;31949;51.404;-0.038;2022-10-16T04:55:47;11.90;99.90
46231;DHT22;31949;51.404;-0.038;2022-10-16T04:58:14;11.80;99.90
46231;DHT22;31949;51.404;-0.038;2022-10-16T05:00:41;11.80;99.90
46231;DHT22;31949;51.404;-0.038;2022-10-16T05:03:08;11.80;99.90
46231;DHT22;31949;51.404;-0.038;2022-10-16T05:05:36;11.80;99.90
46231;DHT22;31949;51.404;-0.038;2022-10-16T05:08:03;11.80;99.90
46231;DHT22;31949;51.404;-0.038;2022-10-16T05:10:31;11.80;99.90
46231;DHT22;31949;51.404;-0.038;2022-10-16T05:12:58;11.80;99.90
46231;DHT22;31949;51.404;-0.038;2022-10-16T05:15:25;11.80;99.90
46231;DHT22;31949;51.404;-0.038;2022-10-16T05:17:53;11.70;99.90
46231;DHT22;31949;51.404;-0.038;2022-10-16T05:20:21;11.70;99.90
46231;DHT22;31949;51.404;-0.038;2022-10-16T05:22:48;11.70;99.90
46231;DHT22;31949;51.404;-0.038;2022-10-16T05:25:16;11.80;99.90
46231;DHT22;31949;51.404;-0.038;2022-10-16T05:27:43;11.70;99.90
46231;DHT22;31949;51.404;-0.038;2022-10-16T05:30:10;11.70;99.90
46231;DHT22;31949;51.404;-0.038;2022-10-16T05:32:38;11.70;99.90
46231;DHT22;31949;51.404;-0.038;2022-10-16T05:35:05;11.70;99.90
46231;DHT22;31949;51.404;-0.038;2022-10-16T05:37:38;11.70;99.90
46231;DHT22;31949;51.404;-0.038;2022-10-16T05:40:05;11.70;99.90
46231;DHT22;31949;51.404;-0.038;2022-10-16T05:42:33;11.60;99.90
46231;DHT22;31949;51.404;-0.038;2022-10-16T05:45:00;11.60;99.90
46231;DHT22;31949;51.404;-0.038;2022-10-16T05:47:27;11.60;99.90
46231;DHT22;31949;51.404;-0.038;2022-10-16T05:49:55;11.60;99.90
46231;DHT22;31949;51.404;-0.038;2022-10-16T05:52:22;11.60;99.90
46231;DHT22;31949;51.404;-0.038;2022-10-16T05:54:49;11.50;99.90
46231;DHT22;31949;51.404;-0.038;2022-10-16T05:57:17;11.50;99.90
46231;DHT22;31949;51.404;-0.038;2022-10-16T05:59:44;11.50;99.90
46231;DHT22;31949;51.404;-0.038;2022-10-16T06:02:14;11.50;99.90
46231;DHT22;31949;51.404;-0.038;2022-10-16T06:04:41;11.50;99.90
46231;DHT22;31949;51.404;-0.038;2022-10-16T06:07:08;11.40;99.90
46231;DHT22;31949;51.404;-0.038;2022-10-16T06:09:36;11.50;99.90
46231;DHT22;31949;51.404;-0.038;2022-10-16T06:12:03;11.50;99.90
46231;DHT22;31949;51.404;-0.038;2022-10-16T06:14:30;11.50;99.90
46231;DHT22;31949;51.404;-0.038;2022-10-16T06:16:58;11.50;99.90
46231;DHT22;31949;51.404;-0.038;2022-10-16T06:19:25;11.50;99.90
46231;DHT22;31949;51.404;-0.038;2022-10-16T06:21:52;11.50;99.90
46231;DHT22;31949;51.404;-0.038;2022-10-16T06:24:19;11.50;99.90
46231;DHT22;31949;51.404;-0.038;2022-10-16T06:26:46;11.40;99.90
46231;DHT22;31949;51.404;-0.038;2022-10-16T06:29:13;11.30;99.90
46231;DHT22;31949;51.404;-0.038;2022-10-16T06:31:41;11.30;99.90
46231;DHT22;31949;51.404;-0.038;2022-10-16T06:34:10;11.30;99.90
46231;DHT22;31949;51.404;-0.038;2022-10-16T06:36:38;11.20;99.90
46231;DHT22;31949;51.404;-0.038;2022-10-16T06:39:06;11.20;99.90
46231;DHT22;31949;51.404;-0.038;2022-10-16T06:41:34;11.20;99.90
46231;DHT22;31949;51.404;-0.038;2022-10-16T06:44:14;11.10;99.90
46231;DHT22;31949;51.404;-0.038;2022-10-16T06:46:41;11.10;99.90
46231;DHT22;31949;51.404;-0.038;2022-10-16T06:49:08;11.10;99.90
46231;DHT22;31949;51.404;-0.038;2022-10-16T06:51:35;11.10;99.90
46231;DHT22;31949;51.404;-0.038;2022-10-16T06:54:09;11.10;99.90
46231;DHT22;31949;51.404;-0.038;2022-10-16T06:56:36;11.10;99.90
46231;DHT22;31949;51.404;-0.038;2022-10-16T06:59:04;11.10;99.90
46231;DHT22;31949;51.404;-0.038;2022-10-16T07:01:31;11.20;99.90
46231;DHT22;31949;51.404;-0.038;2022-10-16T07:04:00;11.20;99.90
46231;DHT22;31949;51.404;-0.038;2022-10-16T07:06:32;11.30;99.90
46231;DHT22;31949;51.404;-0.038;2022-10-16T07:09:02;11.30;99.90
46231;DHT22;31949;51.404;-0.038;2022-10-16T07:11:29;11.30;99.90
46231;DHT22;31949;51.404;-0.038;2022-10-16T07:13:56;11.40;99.90
46231;DHT22;31949;51.404;-0.038;2022-10-16T07:16:26;11.40;99.90
46231;DHT22;31949;51.404;-0.038;2022-10-16T07:18:55;11.50;99.90
46231;DHT22;31949;51.404;-0.038;2022-10-16T07:21:31;11.50;99.90
46231;DHT22;31949;51.404;-0.038;2022-10-16T07:24:06;11.50;99.90
46231;DHT22;31949;51.404;-0.038;2022-10-16T07:26:35;11.60;99.90
46231;DHT22;31949;51.404;-0.038;2022-10-16T07:29:03;11.60;99.90
46231;DHT22;31949;51.404;-0.038;2022-10-16T07:31:31;11.70;99.90
46231;DHT22;31949;51.404;-0.038;2022-10-16T07:33:59;11.70;99.90
46231;DHT22;31949;51.404;-0.038;2022-10-16T07:36:27;11.80;99.90
46231;DHT22;31949;51.404;-0.038;2022-10-16T07:38:55;11.80;99.90
46231;DHT22;31949;51.404;-0.038;2022-10-16T07:41:26;11.90;99.90
46231;DHT22;31949;51.404;-0.038;2022-10-16T07:43:54;11.90;99.90
46231;DHT22;31949;51.404;-0.038;2022-10-16T07:46:22;12.00;99.90
46231;DHT22;31949;51.404;-0.038;2022-10-16T07:48:50;12.00;99.90
46231;DHT22;31949;51.404;-0.038;2022-10-16T07:51:22;12.00;99.90
46231;DHT22;31949;51.404;-0.038;2022-10-16T07:53:50;12.10;99.90
46231;DHT22;31949;51.404;-0.038;2022-10-16T07:56:19;12.10;99.90
46231;DHT22;31949;51.404;-0.038;2022-10-16T07:58:47;12.20;99.90
46231;DHT22;31949;51.404;-0.038;2022-10-16T08:01:17;12.20;99.90
46231;DHT22;31949;51.404;-0.038;2022-10-16T08:03:46;12.20;99.90
46231;DHT22;31949;51.404;-0.038;2022-10-16T08:06:14;12.20;99.90
46231;DHT22;31949;51.404;-0.038;2022-10-16T08:08:41;12.20;99.90
46231;DHT22;31949;51.404;-0.038;2022-10-16T08:11:09;12.20;99.90
46231;DHT22;31949;51.404;-0.038;2022-10-16T08:13:36;12.20;99.90
46231;DHT22;31949;51.404;-0.038;2022-10-16T08:16:04;12.10;99.90
46231;DHT22;31949;51.404;-0.038;2022-10-16T08:18:36;12.10;99.90
46231;DHT22;31949;51.404;-0.038;2022-10-16T08:21:04;12.10;99.90
46231;DHT22;31949;51.404;-0.038;2022-10-16T08:23:32;12.10;99.90
46231;DHT22;31949;51.404;-0.038;2022-10-16T08:26:05;12.10;99.90
46231;DHT22;31949;51.404;-0.038;2022-10-16T08:28:33;12.10;99.90
46231;DHT22;31949;51.404;-0.038;2022-10-16T08:31:15;12.10;99.90
46231;DHT22;31949;51.404;-0.038;2022-10-16T08:33:44;12.10;99.90
46231;DHT22;31949;51.404;-0.038;2022-10-16T08:36:14;12.10;99.90
46231;DHT22;31949;51.404;-0.038;2022-10-16T08:38:42;12.10;99.90
46231;DHT22;31949;51.404;-0.038;2022-10-16T08:44:19;12.10;99.90
46231;DHT22;31949;51.404;-0.038;2022-10-16T08:49:41;12.20;99.90
46231;DHT22;31949;51.404;-0.038;2022-10-16T08:52:12;12.30;99.90
46231;DHT22;31949;51.404;-0.038;2022-10-16T08:54:44;12.30;99.90
46231;DHT22;31949;51.404;-0.038;2022-10-16T08:57:24;12.40;99.90
46231;DHT22;31949;51.404;-0.038;2022-10-16T08:59:53;12.40;99.90
46231;DHT22;31949;51.404;-0.038;2022-10-16T09:02:24;12.50;99.90
46231;DHT22;31949;51.404;-0.038;2022-10-16T09:04:58;12.60;99.90
46231;DHT22;31949;51.404;-0.038;2022-10-16T09:07:46;12.80;99.90
46231;DHT22;31949;51.404;-0.038;2022-10-16T09:11:16;12.80;99.90
46231;DHT22;31949;51.404;-0.038;2022-10-16T09:13:43;12.90;99.90
46231;DHT22;31949;51.404;-0.038;2022-10-16T09:16:44;13.00;99.90
46231;DHT22;31949;51.404;-0.038;2022-10-16T09:19:21;13.10;99.90
46231;DHT22;31949;51.404;-0.038;2022-10-16T09:21:50;13.30;99.90
46231;DHT22;31949;51.404;-0.038;2022-10-16T09:24:20;13.30;99.90
46231;DHT22;31949;51.404;-0.038;2022-10-16T09:26:54;13.40;99.90
46231;DHT22;31949;51.404;-0.038;2022-10-16T09:29:21;13.50;99.90
46231;DHT22;31949;51.404;-0.038;2022-10-16T09:31:51;13.60;99.90
46231;DHT22;31949;51.404;-0.038;2022-10-16T09:34:32;13.70;99.90
46231;DHT22;31949;51.404;-0.038;2022-10-16T09:37:04;13.80;99.90
46231;DHT22;31949;51.404;-0.038;2022-10-16T09:39:53;13.80;99.90
46231;DHT22;31949;51.404;-0.038;2022-10-16T09:42:31;14.00;99.90
46231;DHT22;31949;51.404;-0.038;2022-10-16T09:44:59;14.10;99.90
46231;DHT22;31949;51.404;-0.038;2022-10-16T09:47:28;14.10;99.90
46231;DHT22;31949;51.404;-0.038;2022-10-16T09:50:03;14.20;99.90
46231;DHT22;31949;51.404;-0.038;2022-10-16T09:52:33;14.30;99.90
46231;DHT22;31949;51.404;-0.038;2022-10-16T09:55:12;14.30;99.90
46231;DHT22;31949;51.404;-0.038;2022-10-16T09:57:50;14.50;99.90
46231;DHT22;31949;51.404;-0.038;2022-10-16T10:00:18;14.50;99.90
46231;DHT22;31949;51.404;-0.038;2022-10-16T10:02:46;14.40;99.90
46231;DHT22;31949;51.404;-0.038;2022-10-16T10:08:03;14.40;99.90
46231;DHT22;31949;51.404;-0.038;2022-10-16T10:10:42;14.50;99.90
46231;DHT22;31949;51.404;-0.038;2022-10-16T10:13:20;14.50;99.90
46231;DHT22;31949;51.404;-0.038;2022-10-16T10:15:48;14.60;99.90
46231;DHT22;31949;51.404;-0.038;2022-10-16T10:18:20;14.60;99.90
46231;DHT22;31949;51.404;-0.038;2022-10-16T10:21:00;14.60;99.90
46231;DHT22;31949;51.404;-0.038;2022-10-16T10:23:29;14.70;99.90
46231;DHT22;31949;51.404;-0.038;2022-10-16T10:26:18;14.90;99.90
46231;DHT22;31949;51.404;-0.038;2022-10-16T10:34:57;15.00;99.90
46231;DHT22;31949;51.404;-0.038;2022-10-16T10:40:03;15.00;99.90
46231;DHT22;31949;51.404;-0.038;2022-10-16T10:42:59;15.10;99.90
46231;DHT22;31949;51.404;-0.038;2022-10-16T10:50:55;15.30;99.90
46231;DHT22;31949;51.404;-0.038;2022-10-16T10:59:59;15.70;99.90
46231;DHT22;31949;51.404;-0.038;2022-10-16T11:02:41;15.90;99.90
46231;DHT22;31949;51.404;-0.038;2022-10-16T11:10:44;16.10;99.90
46231;DHT22;31949;51.404;-0.038;2022-10-16T11:13:30;16.20;99.90
46231;DHT22;31949;51.404;-0.038;2022-10-16T11:16:03;16.20;99.90
46231;DHT22;31949;51.404;-0.038;2022-10-16T11:21:48;16.50;99.90
46231;DHT22;31949;51.404;-0.038;2022-10-16T11:27:00;16.50;99.90
46231;DHT22;31949;51.404;-0.038;2022-10-16T11:29:32;16.40;99.90
46231;DHT22;31949;51.404;-0.038;2022-10-16T11:32:23;16.50;99.90
46231;DHT22;31949;51.404;-0.038;2022-10-16T11:34:56;16.50;99.90
46231;DHT22;31949;51.404;-0.038;2022-10-16T11:37:30;16.40;99.90
46231;DHT22;31949;51.404;-0.038;2022-10-16T11:40:05;16.50;99.90
46231;DHT22;31949;51.404;-0.038;2022-10-16T11:42:41;16.50;99.90
46231;DHT22;31949;51.404;-0.038;2022-10-16T11:45:29;16.50;99.90
46231;DHT22;31949;51.404;-0.038;2022-10-16T11:48:48;16.50;99.90
46231;DHT22;31949;51.404;-0.038;2022-10-16T11:50:58;16.60;99.90
46231;DHT22;31949;51.404;-0.038;2022-10-16T11:56:16;16.80;99.90
46231;DHT22;31949;51.404;-0.038;2022-10-16T12:02:27;16.90;99.90
46231;DHT22;31949;51.404;-0.038;2022-10-16T12:04:53;17.00;99.90
46231;DHT22;31949;51.404;-0.038;2022-10-16T12:07:34;17.10;99.90
46231;DHT22;31949;51.404;-0.038;2022-10-16T12:10:22;17.20;99.90
46231;DHT22;31949;51.404;-0.038;2022-10-16T12:12:53;17.30;99.90
46231;DHT22;31949;51.404;-0.038;2022-10-16T12:15:29;17.30;99.90
46231;DHT22;31949;51.404;-0.038;2022-10-16T12:18:24;17.40;99.90
46231;DHT22;31949;51.404;-0.038;2022-10-16T12:20:56;17.30;99.90
46231;DHT22;31949;51.404;-0.038;2022-10-16T12:23:26;17.30;99.90
46231;DHT22;31949;51.404;-0.038;2022-10-16T12:25:55;17.40;99.90
46231;DHT22;31949;51.404;-0.038;2022-10-16T12:28:31;17.40;99.90
46231;DHT22;31949;51.404;-0.038;2022-10-16T12:31:02;17.30;99.90
46231;DHT22;31949;51.404;-0.038;2022-10-16T12:33:32;17.30;99.90
46231;DHT22;31949;51.404;-0.038;2022-10-16T12:36:07;17.30;99.90
46231;DHT22;31949;51.404;-0.038;2022-10-16T12:38:52;17.30;99.90
46231;DHT22;31949;51.404;-0.038;2022-10-16T12:41:36;17.20;99.90
46231;DHT22;31949;51.404;-0.038;2022-10-16T12:44:24;17.20;99.90
46231;DHT22;31949;51.404;-0.038;2022-10-16T12:46:53;17.10;99.90
46231;DHT22;31949;51.404;-0.038;2022-10-16T12:49:32;17.10;99.90
46231;DHT22;31949;51.404;-0.038;2022-10-16T12:52:03;17.10;99.90
46231;DHT22;31949;51.404;-0.038;2022-10-16T12:54:31;17.10;99.90
46231;DHT22;31949;51.404;-0.038;2022-10-16T13:03:40;17.00;99.90
46231;DHT22;31949;51.404;-0.038;2022-10-16T13:12:00;17.00;99.90
46231;DHT22;31949;51.404;-0.038;2022-10-16T13:17:47;17.00;99.90
46231;DHT22;31949;51.404;-0.038;2022-10-16T13:20:46;17.00;99.90
46231;DHT22;31949;51.404;-0.038;2022-10-16T13:23:36;17.00;99.90
46231;DHT22;31949;51.404;-0.038;2022-10-16T13:26:20;16.90;99.90
46231;DHT22;31949;51.404;-0.038;2022-10-16T13:28:49;16.90;99.90
46231;DHT22;31949;51.404;-0.038;2022-10-16T13:31:22;16.90;99.90
46231;DHT22;31949;51.404;-0.038;2022-10-16T13:33:53;16.90;99.90
46231;DHT22;31949;51.404;-0.038;2022-10-16T13:36:29;16.80;99.90
46231;DHT22;31949;51.404;-0.038;2022-10-16T13:39:13;16.80;99.90
46231;DHT22;31949;51.404;-0.038;2022-10-16T13:41:41;16.80;99.90
46231;DHT22;31949;51.404;-0.038;2022-10-16T13:44:20;16.80;99.90
46231;DHT22;31949;51.404;-0.038;2022-10-16T13:46:58;16.90;99.90
46231;DHT22;31949;51.404;-0.038;2022-10-16T13:49:26;17.00;99.90
46231;DHT22;31949;51.404;-0.038;2022-10-16T13:51:58;17.00;99.90
46231;DHT22;31949;51.404;-0.038;2022-10-16T13:54:27;16.90;99.90
46231;DHT22;31949;51.404;-0.038;2022-10-16T13:56:55;17.00;99.90
46231;DHT22;31949;51.404;-0.038;2022-10-16T13:59:36;17.00;99.90
46231;DHT22;31949;51.404;-0.038;2022-10-16T14:04:46;17.00;99.90
46231;DHT22;31949;51.404;-0.038;2022-10-16T14:07:24;17.00;99.90
46231;DHT22;31949;51.404;-0.038;2022-10-16T14:09:53;17.00;99.90
46231;DHT22;31949;51.404;-0.038;2022-10-16T14:12:23;17.00;99.90
46231;DHT22;31949;51.404;-0.038;2022-10-16T14:14:55;17.00;99.90
46231;DHT22;31949;51.404;-0.038;2022-10-16T14:17:33;16.90;99.90
46231;DHT22;31949;51.404;-0.038;2022-10-16T14:20:04;16.90;99.90
46231;DHT22;31949;51.404;-0.038;2022-10-16T14:22:38;16.90;99.90
46231;DHT22;31949;51.404;-0.038;2022-10-16T14:28:13;16.90;99.90
46231;DHT22;31949;51.404;-0.038;2022-10-16T14:30:53;16.90;99.90
46231;DHT22;31949;51.404;-0.038;2022-10-16T14:36:01;16.90;99.90
46231;DHT22;31949;51.404;-0.038;2022-10-16T14:38:30;17.00;99.90
46231;DHT22;31949;51.404;-0.038;2022-10-16T14:40:58;17.00;99.90
46231;DHT22;31949;51.404;-0.038;2022-10-16T14:43:40;16.90;99.90
46231;DHT22;31949;51.404;-0.038;2022-10-16T14:46:16;16.80;99.90
46231;DHT22;31949;51.404;-0.038;2022-10-16T14:48:47;16.90;99.90
46231;DHT22;31949;51.404;-0.038;2022-10-16T14:51:17;16.90;99.90
46231;DHT22;31949;51.404;-0.038;2022-10-16T14:53:45;16.90;99.90
46231;DHT22;31949;51.404;-0.038;2022-10-16T14:56:24;16.90;99.90
46231;DHT22;31949;51.404;-0.038;2022-10-16T14:58:52;16.80;99.90
46231;DHT22;31949;51.404;-0.038;2022-10-16T15:01:20;16.70;99.90
46231;DHT22;31949;51.404;-0.038;2022-10-16T15:03:47;16.70;99.90
46231;DHT22;31949;51.404;-0.038;2022-10-16T15:06:16;16.70;99.90
46231;DHT22;31949;51.404;-0.038;2022-10-16T15:08:43;16.70;99.90
46231;DHT22;31949;51.404;-0.038;2022-10-16T15:11:16;16.70;99.90
46231;DHT22;31949;51.404;-0.038;2022-10-16T15:13:44;16.70;99.90
46231;DHT22;31949;51.404;-0.038;2022-10-16T15:16:12;16.60;99.90
46231;DHT22;31949;51.404;-0.038;2022-10-16T15:18:39;16.60;99.90
46231;DHT22;31949;51.404;-0.038;2022-10-16T15:21:07;16.60;99.90
46231;DHT22;31949;51.404;-0.038;2022-10-16T15:23:34;16.60;99.90
46231;DHT22;31949;51.404;-0.038;2022-10-16T15:26:01;16.50;99.90
46231;DHT22;31949;51.404;-0.038;2022-10-16T15:28:28;16.40;99.90
46231;DHT22;31949;51.404;-0.038;2022-10-16T15:30:56;16.50;99.90
46231;DHT22;31949;51.404;-0.038;2022-10-16T15:33:26;16.40;99.90
46231;DHT22;31949;51.404;-0.038;2022-10-16T15:36:06;16.40;99.90
46231;DHT22;31949;51.404;-0.038;2022-10-16T15:38:33;16.40;99.90
46231;DHT22;31949;51.404;-0.038;2022-10-16T15:41:00;16.30;99.90
46231;DHT22;31949;51.404;-0.038;2022-10-16T15:43:27;16.30;99.90
46231;DHT22;31949;51.404;-0.038;2022-10-16T15:46:01;16.30;99.90
46231;DHT22;31949;51.404;-0.038;2022-10-16T15:48:29;16.30;99.90
46231;DHT22;31949;51.404;-0.038;2022-10-16T15:50:57;16.30;99.90
46231;DHT22;31949;51.404;-0.038;2022-10-16T15:53:24;16.20;99.90
46231;DHT22;31949;51.404;-0.038;2022-10-16T15:55:51;16.20;99.90
46231;DHT22;31949;51.404;-0.038;2022-10-16T15:58:18;16.20;99.90
46231;DHT22;31949;51.404;-0.038;2022-10-16T16:00:57;16.20;99.90
46231;DHT22;31949;51.404;-0.038;2022-10-16T16:03:28;16.20;99.90
46231;DHT22;31949;51.404;-0.038;2022-10-16T16:05:56;16.20;99.90
46231;DHT22;31949;51.404;-0.038;2022-10-16T16:08:23;16.10;99.90
46231;DHT22;31949;51.404;-0.038;2022-10-16T16:11:19;16.10;99.90
46231;DHT22;31949;51.404;-0.038;2022-10-16T16:13:47;16.10;99.90
46231;DHT22;31949;51.404;-0.038;2022-10-16T16:16:15;16.00;99.90
46231;DHT22;31949;51.404;-0.038;2022-10-16T16:18:43;16.00;99.90
46231;DHT22;31949;51.404;-0.038;2022-10-16T16:21:12;16.00;99.90
46231;DHT22;31949;51.404;-0.038;2022-10-16T16:23:40;15.90;99.90
46231;DHT22;31949;51.404;-0.038;2022-10-16T16:26:24;15.90;99.90
46231;DHT22;31949;51.404;-0.038;2022-10-16T16:28:56;15.90;99.90
46231;DHT22;31949;51.404;-0.038;2022-10-16T16:31:25;15.90;99.90
46231;DHT22;31949;51.404;-0.038;2022-10-16T16:33:53;15.90;99.90
46231;DHT22;31949;51.404;-0.038;2022-10-16T16:36:21;15.80;99.90
46231;DHT22;31949;51.404;-0.038;2022-10-16T16:38:49;15.80;99.90
46231;DHT22;31949;51.404;-0.038;2022-10-16T16:41:21;15.80;99.90
46231;DHT22;31949;51.404;-0.038;2022-10-16T16:43:49;15.80;99.90
46231;DHT22;31949;51.404;-0.038;2022-10-16T16:46:18;15.70;99.90
46231;DHT22;31949;51.404;-0.038;2022-10-16T16:48:56;15.70;99.90
46231;DHT22;31949;51.404;-0.038;2022-10-16T16:51:32;15.70;99.90
46231;DHT22;31949;51.404;-0.038;2022-10-16T16:54:06;15.70;99.90
46231;DHT22;31949;51.404;-0.038;2022-10-16T16:56:34;15.70;99.90
46231;DHT22;31949;51.404;-0.038;2022-10-16T16:59:02;15.70;99.90
46231;DHT22;31949;51.404;-0.038;2022-10-16T17:01:29;15.70;99.90
46231;DHT22;31949;51.404;-0.038;2022-10-16T17:03:58;15.60;99.90
46231;DHT22;31949;51.404;-0.038;2022-10-16T17:06:27;15.60;99.90
46231;DHT22;31949;51.404;-0.038;2022-10-16T17:08:57;15.60;99.90